createdAt,value
2019-04-11T00:00:11.303Z,0.2
2019-04-11T00:00:46.217Z,0.3
2019-04-11T00:01:42.019Z,0.1
2019-04-11T00:01:58.776Z,0.2
2019-04-11T00:02:34.177Z,0.2
2019-04-11T00:03:11.252Z,0.3
2019-04-11T00:03:46.310Z,0.3
2019-04-11T00:04:22.368Z,0.3
2019-04-11T00:04:59.076Z,0.2
2019-04-11T00:05:35.315Z,0.3
2019-04-11T00:06:10.085Z,0.2
2019-04-11T00:06:46.061Z,0.3
2019-04-11T00:07:22.726Z,0.3
2019-04-11T00:08:00.117Z,0.2
2019-04-11T00:08:36.739Z,0.2
2019-04-11T00:09:10.535Z,0.2
2019-04-11T00:09:49.087Z,0.3
2019-04-11T00:10:23.118Z,0.2
2019-04-11T00:10:58.079Z,0.3
2019-04-11T00:11:34.175Z,0.2
2019-04-11T00:12:10.710Z,0.2
2019-04-11T00:12:46.712Z,0.2
2019-04-11T00:13:27.384Z,0.2
2019-04-11T00:13:58.168Z,0.2
2019-04-11T00:14:34.141Z,0.3
2019-04-11T00:15:10.973Z,0.2
2019-04-11T00:15:46.095Z,0.1
2019-04-11T00:16:23.147Z,0.2
2019-04-11T00:16:58.362Z,0.1
2019-04-11T00:17:34.500Z,0.2
2019-04-11T00:18:10.633Z,0.2
2019-04-11T00:18:47.409Z,0.2
2019-04-11T00:19:23.435Z,0.2
2019-04-11T00:19:58.219Z,0.2
2019-04-11T00:20:34.158Z,0.1
2019-04-11T00:21:11.067Z,0.1
2019-04-11T00:21:47.024Z,0.2
2019-04-11T00:22:22.112Z,0.2
2019-04-11T00:22:58.081Z,0.2
2019-04-11T00:23:34.657Z,0.1
2019-04-11T00:24:10.734Z,0.1
2019-04-11T00:24:46.909Z,0.1
2019-04-11T00:25:23.135Z,0.1
2019-04-11T00:25:58.358Z,0.1
2019-04-11T00:26:34.134Z,0.1
2019-04-11T00:27:11.079Z,0.1
2019-04-11T00:27:46.190Z,0.1
2019-04-11T00:28:22.171Z,0.1
2019-04-11T00:28:58.635Z,0.1
2019-04-11T00:29:34.768Z,0.1
2019-04-11T00:30:10.406Z,0.1
2019-04-11T00:30:46.189Z,0.1
2019-04-11T00:31:23.272Z,0
2019-04-11T00:31:58.307Z,0.1
2019-04-11T00:32:34.177Z,0.1
2019-04-11T00:33:10.221Z,0.2
2019-04-11T00:33:46.915Z,0.1
2019-04-11T00:34:22.935Z,0.1
2019-04-11T00:34:59.155Z,0.1
2019-04-11T00:35:34.150Z,0
2019-04-11T00:36:10.649Z,0
2019-04-11T00:36:46.663Z,0
2019-04-11T00:37:23.447Z,0.1
2019-04-11T00:37:59.236Z,0.1
2019-04-11T00:38:34.476Z,0.2
2019-04-11T00:39:11.349Z,0.1
2019-04-11T00:39:46.170Z,0.2
2019-04-11T00:40:22.162Z,0.1
2019-04-11T00:40:58.153Z,0.1
2019-04-11T00:41:34.611Z,0.1
2019-04-11T00:42:10.626Z,0
2019-04-11T00:42:47.342Z,0.1
2019-04-11T00:43:35.771Z,0.1
2019-04-11T00:43:58.996Z,0.1
2019-04-11T00:44:35.053Z,0
2019-04-11T00:45:10.147Z,0
2019-04-11T00:45:46.113Z,-0.1
2019-04-11T00:46:22.776Z,0.1
2019-04-11T00:46:58.797Z,0.1
2019-04-11T00:47:35.160Z,0.1
2019-04-11T00:48:11.076Z,0
2019-04-11T00:48:46.403Z,0
2019-04-11T00:49:22.340Z,0.1
2019-04-11T00:49:59.127Z,0
2019-04-11T00:50:35.249Z,0.1
2019-04-11T00:51:10.180Z,0
2019-04-11T00:51:46.178Z,-0.1
2019-04-11T00:52:23.076Z,0
2019-04-11T00:52:58.326Z,0
2019-04-11T00:53:34.386Z,0
2019-04-11T00:54:11.132Z,0
2019-04-11T00:54:47.220Z,0
2019-04-11T00:55:22.095Z,0.1
2019-04-11T00:55:58.181Z,0
2019-04-11T00:56:34.834Z,0
2019-04-11T00:57:10.132Z,0
2019-04-11T00:57:47.083Z,0.1
2019-04-11T00:58:22.377Z,0
2019-04-11T00:58:58.615Z,0.1
2019-04-11T00:59:34.481Z,0
2019-04-11T01:00:11.328Z,0.1
2019-04-11T01:00:47.398Z,0
2019-04-11T01:01:22.176Z,0.1
2019-04-11T01:01:59.146Z,0
2019-04-11T01:02:34.113Z,0.1
2019-04-11T01:03:10.201Z,0.1
2019-04-11T01:03:47.258Z,0
2019-04-11T01:04:22.128Z,0.1
2019-04-11T01:04:59.158Z,0.1
2019-04-11T01:05:34.192Z,0.1
2019-04-11T01:06:10.385Z,0
2019-04-11T01:06:46.986Z,0
2019-04-11T01:07:23.031Z,0
2019-04-11T01:07:58.178Z,0
2019-04-11T01:08:34.164Z,0
2019-04-11T01:09:12.259Z,0
2019-04-11T01:09:46.206Z,-0.1
2019-04-11T01:10:22.629Z,-0.1
2019-04-11T01:10:59.157Z,-0.1
2019-04-11T01:11:34.479Z,0
2019-04-11T01:12:10.475Z,0
2019-04-11T01:12:47.237Z,-0.1
2019-04-11T01:13:22.172Z,-0.1
2019-04-11T01:13:59.401Z,-0.1
2019-04-11T01:14:37.157Z,0
2019-04-11T01:15:10.988Z,-0.1
2019-04-11T01:15:47.161Z,-0.1
2019-04-11T01:16:22.111Z,-0.1
2019-04-11T01:16:59.293Z,-0.2
2019-04-11T01:17:34.184Z,-0.2
2019-04-11T01:18:10.153Z,-0.1
2019-04-11T01:18:46.787Z,-0.1
2019-04-11T01:19:22.887Z,-0.1
2019-04-11T01:19:59.323Z,-0.1
2019-04-11T01:20:34.153Z,-0.2
2019-04-11T01:21:10.616Z,-0.1
2019-04-11T01:21:46.201Z,-0.1
2019-04-11T01:22:22.579Z,-0.1
2019-04-11T01:22:58.728Z,-0.1
2019-04-11T01:23:34.294Z,-0.2
2019-04-11T01:24:11.282Z,-0.3
2019-04-11T01:24:46.365Z,-0.3
2019-04-11T01:25:22.583Z,-0.2
2019-04-11T01:25:59.338Z,-0.4
2019-04-11T01:26:35.304Z,-0.4
2019-04-11T01:27:10.276Z,-0.4
2019-04-11T01:27:46.212Z,-0.4
2019-04-11T01:28:22.973Z,-0.3
2019-04-11T01:28:59.087Z,-0.3
2019-04-11T01:29:34.154Z,-0.4
2019-04-11T01:30:10.125Z,-0.4
2019-04-11T01:30:47.441Z,-0.4
2019-04-11T01:31:22.196Z,-0.4
2019-04-11T01:31:58.417Z,-0.5
2019-04-11T01:32:35.002Z,-0.4
2019-04-11T01:33:11.136Z,-0.4
2019-04-11T01:33:46.612Z,-0.5
2019-04-11T01:34:22.142Z,-0.5
2019-04-11T01:34:59.114Z,-0.5
2019-04-11T01:35:34.558Z,-0.5
2019-04-11T01:36:13.475Z,-0.5
2019-04-11T01:36:47.210Z,-0.6
2019-04-11T01:37:22.116Z,-0.5
2019-04-11T01:37:58.216Z,-0.5
2019-04-11T01:38:34.926Z,-0.5
2019-04-11T01:39:10.933Z,-0.5
2019-04-11T01:39:46.127Z,-0.6
2019-04-11T01:40:22.412Z,-0.6
2019-04-11T01:40:58.524Z,-0.6
2019-04-11T01:41:34.659Z,-0.6
2019-04-11T01:42:11.327Z,-0.6
2019-04-11T01:42:47.391Z,-0.6
2019-04-11T01:43:22.213Z,-0.6
2019-04-11T01:44:05.283Z,-0.7
2019-04-11T01:44:34.255Z,-0.6
2019-04-11T01:45:11.418Z,-0.6
2019-04-11T01:45:46.166Z,-0.6
2019-04-11T01:46:22.575Z,-0.7
2019-04-11T01:46:58.664Z,-0.6
2019-04-11T01:47:37.164Z,-0.7
2019-04-11T01:48:11.387Z,-0.7
2019-04-11T01:48:46.196Z,-0.7
2019-04-11T01:49:22.231Z,-0.7
2019-04-11T01:49:58.992Z,-0.7
2019-04-11T01:50:35.244Z,-0.7
2019-04-11T01:51:10.132Z,-0.6
2019-04-11T01:51:46.235Z,-0.7
2019-04-11T01:52:22.728Z,-0.7
2019-04-11T01:52:58.721Z,-0.7
2019-04-11T01:53:35.473Z,-0.8
2019-04-11T01:54:11.422Z,-0.7
2019-04-11T01:54:46.308Z,-0.7
2019-04-11T01:55:22.159Z,-0.7
2019-04-11T01:55:59.125Z,-0.8
2019-04-11T01:56:34.207Z,-0.7
2019-04-11T01:57:10.196Z,-0.7
2019-04-11T01:57:46.753Z,-0.6
2019-04-11T01:58:22.795Z,-0.7
2019-04-11T01:58:59.305Z,-0.6
2019-04-11T01:59:35.176Z,-0.7
2019-04-11T02:00:12.209Z,-0.8
2019-04-11T02:00:46.218Z,-0.7
2019-04-11T02:01:23.260Z,-0.7
2019-04-11T02:01:58.194Z,-0.7
2019-04-11T02:02:35.022Z,-0.8
2019-04-11T02:03:10.989Z,-0.8
2019-04-11T02:03:46.211Z,-0.8
2019-04-11T02:04:22.192Z,-0.8
2019-04-11T02:04:59.009Z,-0.7
2019-04-11T02:05:35.325Z,-0.8
2019-04-11T02:06:10.250Z,-0.7
2019-04-11T02:06:46.231Z,-0.7
2019-04-11T02:07:22.913Z,-0.8
2019-04-11T02:07:59.040Z,-0.8
2019-04-11T02:08:35.299Z,-0.8
2019-04-11T02:09:10.204Z,-0.9
2019-04-11T02:09:46.678Z,-0.8
2019-04-11T02:10:22.231Z,-0.8
2019-04-11T02:10:59.544Z,-0.8
2019-04-11T02:11:34.287Z,-0.8
2019-04-11T02:12:10.274Z,-0.9
2019-04-11T02:12:46.238Z,-0.8
2019-04-11T02:13:22.197Z,-0.9
2019-04-11T02:14:16.089Z,-0.8
2019-04-11T02:14:34.135Z,-1
2019-04-11T02:15:10.603Z,-0.8
2019-04-11T02:15:46.566Z,-0.8
2019-04-11T02:16:23.296Z,-1
2019-04-11T02:16:59.555Z,-0.9
2019-04-11T02:17:35.222Z,-0.9
2019-04-11T02:18:11.225Z,-0.9
2019-04-11T02:18:46.167Z,-0.9
2019-04-11T02:19:22.162Z,-0.9
2019-04-11T02:19:59.021Z,-0.9
2019-04-11T02:20:34.185Z,-0.8
2019-04-11T02:21:10.162Z,-0.9
2019-04-11T02:21:46.547Z,-0.9
2019-04-11T02:22:22.616Z,-0.9
2019-04-11T02:22:59.346Z,-0.9
2019-04-11T02:23:35.314Z,-0.9
2019-04-11T02:24:10.236Z,-0.9
2019-04-11T02:24:46.232Z,-0.9
2019-04-11T02:25:22.975Z,-0.8
2019-04-11T02:25:58.161Z,-0.8
2019-04-11T02:26:35.347Z,-0.8
2019-04-11T02:27:10.876Z,-0.9
2019-04-11T02:27:46.595Z,-0.8
2019-04-11T02:28:22.790Z,-0.9
2019-04-11T02:28:59.574Z,-0.9
2019-04-11T02:29:35.352Z,-0.9
2019-04-11T02:30:14.076Z,-0.8
2019-04-11T02:30:48.733Z,-0.9
2019-04-11T02:31:23.783Z,-0.9
2019-04-11T02:32:04.844Z,-1
2019-04-11T02:32:36.579Z,-0.9
2019-04-11T02:33:13.545Z,-1
2019-04-11T02:33:48.799Z,-0.9
2019-04-11T02:34:24.975Z,-0.9
2019-04-11T02:35:01.749Z,-1
2019-04-11T02:35:36.873Z,-1
2019-04-11T02:36:13.668Z,-1
2019-04-11T02:36:46.552Z,-1
2019-04-11T02:37:25.737Z,-1
2019-04-11T02:37:59.853Z,-1
2019-04-11T02:38:36.876Z,-1
2019-04-11T02:39:19.172Z,-1
2019-04-11T02:39:49.070Z,-1.1
2019-04-11T02:40:24.842Z,-1
2019-04-11T02:40:58.354Z,-1
2019-04-11T02:41:37.755Z,-1.1
2019-04-11T02:42:11.426Z,-1
2019-04-11T02:42:48.366Z,-1.1
2019-04-11T02:43:25.811Z,-1.1
2019-04-11T02:44:01.048Z,-1.1
2019-04-11T02:45:02.890Z,-1.1
2019-04-11T02:45:39.621Z,-1.1
2019-04-11T02:45:57.921Z,-1.1
2019-04-11T02:46:43.108Z,-1.1
2019-04-11T02:47:13.493Z,-1.1
2019-04-11T02:47:39.522Z,-1.1
2019-04-11T02:48:13.936Z,-1.1
2019-04-11T02:48:46.197Z,-1.1
2019-04-11T02:49:25.693Z,-1.2
2019-04-11T02:49:59.979Z,-1.1
2019-04-11T02:50:37.025Z,-1.1
2019-04-11T02:51:10.241Z,-1.2
2019-04-11T02:51:49.394Z,-1.1
2019-04-11T02:52:25.085Z,-1.2
2019-04-11T02:52:58.878Z,-1.1
2019-04-11T02:53:34.779Z,-1.1
2019-04-11T02:54:13.340Z,-1.1
2019-04-11T02:54:49.185Z,-1.2
2019-04-11T02:55:22.282Z,-1.2
2019-04-11T02:56:00.547Z,-1.2
2019-04-11T02:56:36.481Z,-1.1
2019-04-11T02:57:12.059Z,-1.2
2019-04-11T02:57:48.084Z,-1.1
2019-04-11T02:58:25.186Z,-1.1
2019-04-11T02:59:01.819Z,-1.1
2019-04-11T02:59:36.102Z,-1.2
2019-04-11T03:00:13.267Z,-1.1
2019-04-11T03:00:46.199Z,-1.2
2019-04-11T03:01:24.090Z,-1.1
2019-04-11T03:02:00.024Z,-1.1
2019-04-11T03:02:36.893Z,-1.1
2019-04-11T03:03:10.667Z,-1.1
2019-04-11T03:03:47.670Z,-1.1
2019-04-11T03:04:24.580Z,-1.1
2019-04-11T03:04:58.215Z,-1
2019-04-11T03:05:38.824Z,-1
2019-04-11T03:06:11.686Z,-1
2019-04-11T03:06:49.365Z,-1
2019-04-11T03:07:24.698Z,-1
2019-04-11T03:08:00.210Z,-0.9
2019-04-11T03:08:37.073Z,-0.9
2019-04-11T03:09:13.148Z,-1
2019-04-11T03:09:49.097Z,-0.9
2019-04-11T03:10:22.549Z,-0.8
2019-04-11T03:11:01.344Z,-0.8
2019-04-11T03:11:35.018Z,-0.8
2019-04-11T03:12:12.961Z,-0.9
2019-04-11T03:12:48.555Z,-0.9
2019-04-11T03:13:25.235Z,-0.9
2019-04-11T03:14:03.247Z,-0.8
2019-04-11T03:15:09.039Z,-0.8
2019-04-11T03:16:20.045Z,-0.8
2019-04-11T03:16:48.909Z,-0.7
2019-04-11T03:17:19.400Z,-0.8
2019-04-11T03:17:43.188Z,-0.7
2019-04-11T03:18:18.574Z,-0.7
2019-04-11T03:19:04.796Z,-0.8
2019-04-11T03:19:50.997Z,-0.7
2019-04-11T03:20:23.821Z,-0.8
2019-04-11T03:20:48.033Z,-0.7
2019-04-11T03:21:20.313Z,-0.7
2019-04-11T03:21:47.677Z,-0.7
2019-04-11T03:22:24.682Z,-0.8
2019-04-11T03:23:07.589Z,-0.6
2019-04-11T03:23:37.380Z,-0.7
2019-04-11T03:24:11.285Z,-0.7
2019-04-11T03:24:48.948Z,-0.7
2019-04-11T03:25:24.455Z,-0.7
2019-04-11T03:25:58.616Z,-0.7
2019-04-11T03:26:37.312Z,-0.6
2019-04-11T03:27:12.058Z,-0.7
2019-04-11T03:27:49.074Z,-0.7
2019-04-11T03:28:30.539Z,-0.6
2019-04-11T03:29:01.859Z,-0.7
2019-04-11T03:29:37.826Z,-0.6
2019-04-11T03:30:19.731Z,-0.6
2019-04-11T03:31:49.467Z,-0.7
2019-04-11T03:33:00.150Z,-0.6
2019-04-11T03:34:11.736Z,-0.5
2019-04-11T03:34:58.080Z,-0.6
2019-04-11T03:35:59.246Z,-0.5
2019-04-11T03:36:47.485Z,-0.5
2019-04-11T03:37:13.402Z,-0.5
2019-04-11T03:37:18.480Z,-0.5
2019-04-11T03:37:42.729Z,-0.5
2019-04-11T03:38:03.397Z,-0.5
2019-04-11T03:38:42.227Z,-0.5
2019-04-11T03:39:43.341Z,-0.6
2019-04-11T03:40:56.584Z,-0.5
2019-04-11T03:41:26.582Z,-0.6
2019-04-11T03:42:09.331Z,-0.5
2019-04-11T03:42:46.074Z,-0.6
2019-04-11T03:43:08.714Z,-0.6
2019-04-11T03:43:45.671Z,-0.6
2019-04-11T03:44:14.285Z,-0.6
2019-04-11T03:44:47.655Z,-0.7
2019-04-11T03:45:47.714Z,-0.6
2019-04-11T03:46:19.226Z,-0.6
2019-04-11T03:47:31.687Z,-0.7
2019-04-11T03:48:01.575Z,-0.7
2019-04-11T03:48:36.592Z,-0.7
2019-04-11T03:49:10.084Z,-0.7
2019-04-11T03:49:39.400Z,-0.7
2019-04-11T03:50:12.319Z,-0.7
2019-04-11T03:50:38.380Z,-0.7
2019-04-11T03:51:13.455Z,-0.7
2019-04-11T03:51:48.313Z,-0.8
2019-04-11T03:52:25.295Z,-0.7
2019-04-11T03:53:03.442Z,-0.8
2019-04-11T03:53:36.515Z,-0.8
2019-04-11T03:54:13.535Z,-0.8
2019-04-11T03:54:48.090Z,-0.8
2019-04-11T03:55:25.317Z,-0.8
2019-04-11T03:55:59.451Z,-0.8
2019-04-11T03:56:36.729Z,-0.8
2019-04-11T03:57:10.293Z,-0.8
2019-04-11T03:57:48.731Z,-0.8
2019-04-11T03:58:25.330Z,-0.8
2019-04-11T03:58:59.061Z,-0.8
2019-04-11T03:59:38.498Z,-0.8
2019-04-11T04:00:14.735Z,-0.8
2019-04-11T04:00:49.510Z,-0.8
2019-04-11T04:01:26.679Z,-0.8
2019-04-11T04:02:00.254Z,-0.8
2019-04-11T04:02:37.090Z,-0.9
2019-04-11T04:03:14.035Z,-0.9
2019-04-11T04:03:48.570Z,-0.9
2019-04-11T04:04:25.691Z,-1
2019-04-11T04:04:59.492Z,-0.9
2019-04-11T04:05:38.606Z,-0.9
2019-04-11T04:06:10.470Z,-1
2019-04-11T04:06:49.761Z,-0.9
2019-04-11T04:07:24.201Z,-1
2019-04-11T04:08:01.320Z,-1
2019-04-11T04:08:36.382Z,-1
2019-04-11T04:09:12.937Z,-0.9
2019-04-11T04:09:46.562Z,-0.9
2019-04-11T04:10:23.855Z,-1
2019-04-11T04:11:00.226Z,-1
2019-04-11T04:11:35.142Z,-1
2019-04-11T04:12:13.175Z,-0.9
2019-04-11T04:12:48.074Z,-0.9
2019-04-11T04:13:28.080Z,-1.1
2019-04-11T04:14:02.034Z,-1.1
2019-04-11T04:14:36.909Z,-1
2019-04-11T04:15:29.831Z,-1.1
2019-04-11T04:16:15.139Z,-1
2019-04-11T04:16:36.285Z,-1.1
2019-04-11T04:17:04.126Z,-1.1
2019-04-11T04:17:35.881Z,-1.1
2019-04-11T04:18:13.975Z,-1.1
2019-04-11T04:18:48.405Z,-1.1
2019-04-11T04:19:25.011Z,-1.1
2019-04-11T04:20:02.031Z,-1.1
2019-04-11T04:20:36.756Z,-1.1
2019-04-11T04:21:11.177Z,-1.2
2019-04-11T04:21:48.626Z,-1.2
2019-04-11T04:22:24.809Z,-1.2
2019-04-11T04:22:58.701Z,-1.2
2019-04-11T04:23:37.824Z,-1.2
2019-04-11T04:24:11.062Z,-1.2
2019-04-11T04:24:49.822Z,-1.2
2019-04-11T04:25:24.110Z,-1.3
2019-04-11T04:25:58.835Z,-1.2
2019-04-11T04:26:35.819Z,-1.2
2019-04-11T04:27:10.778Z,-1.2
2019-04-11T04:27:48.982Z,-1.2
2019-04-11T04:28:24.049Z,-1.1
2019-04-11T04:29:00.477Z,-1.2
2019-04-11T04:29:37.971Z,-1.1
2019-04-11T04:30:13.219Z,-1.2
2019-04-11T04:30:47.321Z,-1.2
2019-04-11T04:31:24.298Z,-1.3
2019-04-11T04:31:59.909Z,-1.3
2019-04-11T04:32:34.307Z,-1.3
2019-04-11T04:33:12.906Z,-1.3
2019-04-11T04:33:48.097Z,-1.3
2019-04-11T04:34:24.065Z,-1.3
2019-04-11T04:35:00.604Z,-1.3
2019-04-11T04:35:38.004Z,-1.2
2019-04-11T04:36:13.757Z,-1.3
2019-04-11T04:36:49.180Z,-1.3
2019-04-11T04:37:26.434Z,-1.3
2019-04-11T04:37:59.859Z,-1.2
2019-04-11T04:38:37.511Z,-1.3
2019-04-11T04:39:12.444Z,-1.2
2019-04-11T04:39:50.159Z,-1.3
2019-04-11T04:40:50.735Z,-1.2
2019-04-11T04:41:22.021Z,-1.2
2019-04-11T04:41:51.984Z,-1.2
2019-04-11T04:42:27.037Z,-1.2
2019-04-11T04:42:54.415Z,-1.2
2019-04-11T04:43:24.739Z,-1.1
2019-04-11T04:44:01.222Z,-1.1
2019-04-11T04:44:34.524Z,-1.2
2019-04-11T04:45:13.992Z,-1.2
2019-04-11T04:46:22.947Z,-1.2
2019-04-11T04:46:52.385Z,-1.2
2019-04-11T04:47:16.352Z,-1.1
2019-04-11T04:47:48.745Z,-1.2
2019-04-11T04:48:17.955Z,-1.1
2019-04-11T04:48:49.348Z,-1.1
2019-04-11T04:49:24.157Z,-1.1
2019-04-11T04:50:00.857Z,-1.1
2019-04-11T04:50:36.581Z,-1.1
2019-04-11T04:51:14.116Z,-1
2019-04-11T04:51:48.033Z,-1.1
2019-04-11T04:52:22.544Z,-1.1
2019-04-11T04:53:02.196Z,-1.1
2019-04-11T04:53:35.844Z,-1.1
2019-04-11T04:54:11.714Z,-1
2019-04-11T04:54:48.456Z,-0.9
2019-04-11T04:55:25.801Z,-0.9
2019-04-11T04:55:58.314Z,-0.9
2019-04-11T04:56:36.985Z,-0.9
2019-04-11T04:57:13.347Z,-0.9
2019-04-11T04:57:46.767Z,-0.9
2019-04-11T04:58:24.442Z,-0.8
2019-04-11T04:58:59.175Z,-0.9
2019-04-11T04:59:37.388Z,-0.8
2019-04-11T05:00:13.951Z,-0.8
2019-04-11T05:00:48.201Z,-0.8
2019-04-11T05:01:24.169Z,-0.8
2019-04-11T05:02:01.515Z,-0.7
2019-04-11T05:02:37.425Z,-0.7
2019-04-11T05:03:10.652Z,-0.7
2019-04-11T05:03:48.819Z,-0.8
2019-04-11T05:04:24.000Z,-0.7
2019-04-11T05:05:00.654Z,-0.7
2019-04-11T05:05:35.972Z,-0.7
2019-04-11T05:06:11.841Z,-0.6
2019-04-11T05:06:50.278Z,-0.6
2019-04-11T05:07:25.243Z,-0.7
2019-04-11T05:08:00.491Z,-0.6
2019-04-11T05:08:35.276Z,-0.6
2019-04-11T05:09:12.342Z,-0.6
2019-04-11T05:09:47.881Z,-0.6
2019-04-11T05:10:23.853Z,-0.6
2019-04-11T05:10:58.270Z,-0.6
2019-04-11T05:11:36.025Z,-0.7
2019-04-11T05:12:11.871Z,-0.6
2019-04-11T05:12:46.487Z,-0.6
2019-04-11T05:13:24.533Z,-0.5
2019-04-11T05:14:00.503Z,-0.5
2019-04-11T05:14:37.108Z,-0.5
2019-04-11T05:15:10.435Z,-0.5
2019-04-11T05:15:46.280Z,-0.6
2019-04-11T05:16:22.365Z,-0.5
2019-04-11T05:16:58.448Z,-0.6
2019-04-11T05:17:35.895Z,-0.5
2019-04-11T05:18:14.590Z,-0.5
2019-04-11T05:18:46.375Z,-0.4
2019-04-11T05:19:23.790Z,-0.4
2019-04-11T05:19:58.852Z,-0.5
2019-04-11T05:20:34.551Z,-0.5
2019-04-11T05:21:11.015Z,-0.5
2019-04-11T05:21:46.289Z,-0.4
2019-04-11T05:22:22.799Z,-0.5
2019-04-11T05:22:58.308Z,-0.4
2019-04-11T05:23:34.320Z,-0.4
2019-04-11T05:24:10.645Z,-0.5
2019-04-11T05:24:47.437Z,-0.4
2019-04-11T05:25:22.611Z,-0.4
2019-04-11T05:26:01.359Z,-0.3
2019-04-11T05:26:35.410Z,-0.4
2019-04-11T05:27:10.747Z,-0.3
2019-04-11T05:27:47.488Z,-0.3
2019-04-11T05:28:23.363Z,-0.2
2019-04-11T05:28:58.313Z,-0.3
2019-04-11T05:29:35.309Z,-0.3
2019-04-11T05:30:11.511Z,-0.3
2019-04-11T05:30:46.325Z,-0.3
2019-04-11T05:31:23.034Z,-0.4
2019-04-11T05:31:59.213Z,-0.2
2019-04-11T05:32:35.472Z,-0.2
2019-04-11T05:33:11.544Z,-0.2
2019-04-11T05:33:47.320Z,-0.2
2019-04-11T05:34:22.247Z,-0.2
2019-04-11T05:34:58.818Z,-0.1
2019-04-11T05:35:34.766Z,-0.2
2019-04-11T05:36:10.448Z,-0.1
2019-04-11T05:36:47.480Z,-0.1
2019-04-11T05:37:23.099Z,0
2019-04-11T05:37:58.312Z,0.1
2019-04-11T05:38:34.267Z,0.3
2019-04-11T05:39:10.998Z,0.3
2019-04-11T05:39:46.333Z,0.5
2019-04-11T05:40:22.309Z,0.6
2019-04-11T05:40:58.852Z,0.8
2019-04-11T05:41:34.481Z,0.9
2019-04-11T05:42:15.809Z,0.9
2019-04-11T05:42:53.805Z,1
2019-04-11T05:43:29.199Z,1.2
2019-04-11T05:44:05.260Z,1.2
2019-04-11T05:44:40.007Z,1.3
2019-04-11T05:45:20.821Z,1.3
2019-04-11T05:45:54.416Z,1.3
2019-04-11T05:46:38.112Z,1.5
2019-04-11T05:47:04.106Z,1.6
2019-04-11T05:47:35.550Z,1.6
2019-04-11T05:48:11.472Z,1.7
2019-04-11T05:48:47.432Z,1.7
2019-04-11T05:49:23.487Z,1.8
2019-04-11T05:49:59.274Z,1.9
2019-04-11T05:50:34.408Z,1.9
2019-04-11T05:51:11.241Z,1.9
2019-04-11T05:51:47.828Z,2
2019-04-11T05:52:22.289Z,2
2019-04-11T05:53:03.627Z,2
2019-04-11T05:53:38.241Z,2.1
2019-04-11T05:54:12.137Z,2.1
2019-04-11T05:54:49.681Z,2.3
2019-04-11T05:55:22.260Z,2.3
2019-04-11T05:55:59.417Z,2.4
2019-04-11T05:56:35.651Z,2.5
2019-04-11T05:57:11.514Z,2.4
2019-04-11T05:57:47.265Z,2.3
2019-04-11T05:58:22.362Z,2.4
2019-04-11T05:58:58.318Z,2.4
2019-04-11T05:59:35.081Z,2.5
2019-04-11T06:00:10.251Z,2.4
2019-04-11T06:00:46.930Z,2.4
2019-04-11T06:01:22.716Z,2.3
2019-04-11T06:02:07.223Z,2.5
2019-04-11T06:02:35.531Z,2.4
2019-04-11T06:03:10.414Z,2.3
2019-04-11T06:03:50.508Z,2.4
2019-04-11T06:04:27.158Z,2.5
2019-04-11T06:04:58.246Z,2.5
2019-04-11T06:05:37.810Z,2.6
2019-04-11T06:06:11.159Z,2.6
2019-04-11T06:06:46.852Z,2.6
2019-04-11T06:07:23.480Z,2.6
2019-04-11T06:07:58.414Z,2.7
2019-04-11T06:08:34.328Z,2.7
2019-04-11T06:09:13.405Z,2.6
2019-04-11T06:09:46.577Z,2.7
2019-04-11T06:10:22.319Z,2.9
2019-04-11T06:10:58.312Z,2.8
2019-04-11T06:11:35.206Z,2.9
2019-04-11T06:12:11.432Z,3
2019-04-11T06:12:46.330Z,3.1
2019-04-11T06:13:23.154Z,3.1
2019-04-11T06:14:05.639Z,3.1
2019-04-11T06:14:35.584Z,3.1
2019-04-11T06:15:11.536Z,3
2019-04-11T06:15:47.487Z,3.1
2019-04-11T06:16:35.795Z,3.1
2019-04-11T06:16:59.488Z,3.1
2019-04-11T06:17:34.632Z,3.1
2019-04-11T06:18:17.852Z,3.2
2019-04-11T06:18:46.301Z,3.2
2019-04-11T06:19:23.203Z,3.2
2019-04-11T06:19:58.306Z,3.3
2019-04-11T06:20:35.499Z,3.3
2019-04-11T06:21:11.590Z,3.4
2019-04-11T06:21:46.715Z,3.4
2019-04-11T06:22:23.411Z,3.4
2019-04-11T06:22:58.537Z,3.5
2019-04-11T06:23:35.383Z,3.5
2019-04-11T06:24:10.345Z,3.6
2019-04-11T06:24:46.313Z,3.6
2019-04-11T06:25:25.612Z,3.7
2019-04-11T06:26:00.869Z,3.9
2019-04-11T06:26:34.819Z,3.8
2019-04-11T06:27:13.731Z,3.9
2019-04-11T06:27:47.617Z,3.9
2019-04-11T06:28:22.515Z,4.1
2019-04-11T06:28:59.377Z,4.1
2019-04-11T06:29:35.198Z,4.1
2019-04-11T06:30:10.272Z,4.2
2019-04-11T06:30:46.446Z,4.4
2019-04-11T06:31:24.874Z,4.3
2019-04-11T06:31:59.421Z,4.5
2019-04-11T06:32:34.450Z,4.4
2019-04-11T06:33:10.436Z,4.4
2019-04-11T06:33:47.251Z,4.5
2019-04-11T06:34:26.320Z,4.3
2019-04-11T06:34:58.265Z,4.4
2019-04-11T06:35:34.349Z,4.5
2019-04-11T06:36:10.338Z,4.5
2019-04-11T06:36:48.204Z,4.5
2019-04-11T06:37:22.381Z,4.6
2019-04-11T06:38:00.608Z,4.7
2019-04-11T06:38:34.668Z,4.7
2019-04-11T06:39:13.582Z,4.9
2019-04-11T06:39:47.157Z,4.9
2019-04-11T06:40:23.189Z,4.9
2019-04-11T06:40:58.327Z,4.7
2019-04-11T06:41:35.014Z,4.7
2019-04-11T06:42:11.077Z,4.8
2019-04-11T06:42:47.357Z,4.7
2019-04-11T06:43:22.323Z,4.7
2019-04-11T06:43:58.813Z,4.8
2019-04-11T06:44:34.562Z,4.9
2019-04-11T06:45:11.517Z,5
2019-04-11T06:45:46.458Z,5
2019-04-11T06:46:22.555Z,5.2
2019-04-11T06:47:02.212Z,5.3
2019-04-11T06:47:34.962Z,5.3
2019-04-11T06:48:11.475Z,5.4
2019-04-11T06:48:46.284Z,5.4
2019-04-11T06:49:22.776Z,5.6
2019-04-11T06:49:58.897Z,5.7
2019-04-11T06:50:35.371Z,5.7
2019-04-11T06:51:11.276Z,5.7
2019-04-11T06:51:46.612Z,5.7
2019-04-11T06:52:22.349Z,5.6
2019-04-11T06:52:58.524Z,5.8
2019-04-11T06:53:34.702Z,5.8
2019-04-11T06:54:10.249Z,5.7
2019-04-11T06:54:47.388Z,5.8
2019-04-11T06:55:22.759Z,5.8
2019-04-11T06:56:01.471Z,5.7
2019-04-11T06:56:35.175Z,5.8
2019-04-11T06:57:10.360Z,5.8
2019-04-11T06:57:46.314Z,5.8
2019-04-11T06:58:23.246Z,5.8
2019-04-11T06:58:58.247Z,5.9
2019-04-11T06:59:34.767Z,5.8
2019-04-11T07:00:10.317Z,5.8
2019-04-11T07:00:47.186Z,5.9
2019-04-11T07:01:22.736Z,5.8
2019-04-11T07:02:14.664Z,5.8
2019-04-11T07:02:34.453Z,5.8
2019-04-11T07:03:24.397Z,5.9
2019-04-11T07:03:47.231Z,6
2019-04-11T07:04:22.325Z,6
2019-04-11T07:04:58.466Z,6
2019-04-11T07:05:35.440Z,6.1
2019-04-11T07:06:11.520Z,6.2
2019-04-11T07:06:46.348Z,6.2
2019-04-11T07:07:22.689Z,6.1
2019-04-11T07:07:58.347Z,6.1
2019-04-11T07:08:34.575Z,6.1
2019-04-11T07:09:10.327Z,6.1
2019-04-11T07:09:47.318Z,6.1
2019-04-11T07:10:22.684Z,6.1
2019-04-11T07:10:59.176Z,6.2
2019-04-11T07:11:34.448Z,6.3
2019-04-11T07:12:10.288Z,6.3
2019-04-11T07:12:47.353Z,6.4
2019-04-11T07:13:23.038Z,6.5
2019-04-11T07:13:58.543Z,6.4
2019-04-11T07:14:35.354Z,6.5
2019-04-11T07:15:10.502Z,6.8
2019-04-11T07:15:46.749Z,7
2019-04-11T07:16:22.361Z,6.9
2019-04-11T07:17:07.204Z,7
2019-04-11T07:17:34.261Z,7
2019-04-11T07:18:10.351Z,7
2019-04-11T07:18:46.770Z,7.2
2019-04-11T07:19:22.286Z,7.3
2019-04-11T07:19:58.249Z,7.4
2019-04-11T07:20:35.442Z,7.5
2019-04-11T07:21:10.958Z,7.5
2019-04-11T07:21:46.464Z,7.6
2019-04-11T07:22:23.383Z,7.4
2019-04-11T07:22:59.404Z,7.5
2019-04-11T07:23:34.322Z,7.3
2019-04-11T07:24:10.270Z,7.3
2019-04-11T07:24:47.204Z,7.2
2019-04-11T07:25:22.640Z,7.3
2019-04-11T07:25:58.430Z,7.4
2019-04-11T07:26:35.421Z,7.5
2019-04-11T07:27:10.243Z,7.6
2019-04-11T07:27:46.323Z,7.6
2019-04-11T07:28:23.248Z,7.6
2019-04-11T07:28:58.902Z,7.7
2019-04-11T07:29:34.267Z,7.5
2019-04-11T07:30:11.366Z,7.4
2019-04-11T07:30:47.588Z,7.5
2019-04-11T07:31:23.602Z,7.5
2019-04-11T07:31:58.236Z,7.4
2019-04-11T07:32:34.618Z,7.5
2019-04-11T07:33:12.731Z,7.6
2019-04-11T07:33:46.295Z,7.7
2019-04-11T07:34:22.228Z,7.7
2019-04-11T07:34:58.315Z,7.7
2019-04-11T07:35:35.432Z,7.9
2019-04-11T07:36:10.732Z,8
2019-04-11T07:36:46.586Z,8
2019-04-11T07:37:23.770Z,8
2019-04-11T07:37:58.595Z,8
2019-04-11T07:38:34.265Z,8
2019-04-11T07:39:10.251Z,7.9
2019-04-11T07:39:47.485Z,8
2019-04-11T07:40:22.302Z,8.2
2019-04-11T07:41:00.554Z,8.1
2019-04-11T07:41:34.357Z,8.1
2019-04-11T07:42:13.540Z,8
2019-04-11T07:42:47.227Z,7.8
2019-04-11T07:43:22.891Z,8
2019-04-11T07:43:58.813Z,7.9
2019-04-11T07:44:34.445Z,8
2019-04-11T07:45:14.080Z,8
2019-04-11T07:45:47.324Z,8.2
2019-04-11T07:46:22.501Z,8.3
2019-04-11T07:46:58.556Z,8.4
2019-04-11T07:47:35.511Z,8.3
2019-04-11T07:48:11.111Z,8.3
2019-04-11T07:48:47.213Z,8.4
2019-04-11T07:49:22.504Z,8.4
2019-04-11T07:49:58.502Z,8.6
2019-04-11T07:50:35.347Z,8.5
2019-04-11T07:51:11.324Z,8.7
2019-04-11T07:51:46.314Z,8.7
2019-04-11T07:52:22.267Z,8.7
2019-04-11T07:52:58.563Z,8.7
2019-04-11T07:53:35.427Z,8.7
2019-04-11T07:54:11.527Z,8.7
2019-04-11T07:54:46.278Z,8.8
2019-04-11T07:55:22.478Z,8.8
2019-04-11T07:56:03.513Z,8.7
2019-04-11T07:56:35.506Z,8.6
2019-04-11T07:57:10.900Z,8.7
2019-04-11T07:57:47.175Z,8.5
2019-04-11T07:58:22.325Z,8.6
2019-04-11T07:58:58.903Z,8.6
2019-04-11T07:59:34.284Z,8.6
2019-04-11T08:00:10.423Z,8.7
2019-04-11T08:00:53.153Z,8.8
2019-04-11T08:01:22.294Z,8.8
2019-04-11T08:01:59.541Z,8.8
2019-04-11T08:02:35.263Z,8.6
2019-04-11T08:03:10.328Z,8.4
2019-04-11T08:03:47.248Z,8.4
2019-04-11T08:04:22.272Z,8.2
2019-04-11T08:04:58.232Z,8
2019-04-11T08:05:34.939Z,8
2019-04-11T08:06:11.407Z,8
2019-04-11T08:06:46.258Z,7.9
2019-04-11T08:07:22.446Z,7.9
2019-04-11T08:07:59.393Z,7.8
2019-04-11T08:08:34.905Z,7.8
2019-04-11T08:09:10.270Z,7.9
2019-04-11T08:09:46.378Z,7.9
2019-04-11T08:10:23.107Z,8
2019-04-11T08:10:58.449Z,7.9
2019-04-11T08:11:34.244Z,7.9
2019-04-11T08:12:10.229Z,7.9
2019-04-11T08:12:46.349Z,7.9
2019-04-11T08:13:22.949Z,8.1
2019-04-11T08:13:58.241Z,8.2